createdAt,value
2018-02-10T00:00:45.415Z,0
2018-02-10T00:01:47.835Z,0
2018-02-10T00:02:50.540Z,0
2018-02-10T00:03:53.246Z,0
2018-02-10T00:04:55.663Z,0
2018-02-10T00:05:58.083Z,0
2018-02-10T00:07:00.501Z,0
2018-02-10T00:08:02.940Z,0
2018-02-10T00:09:05.353Z,0
2018-02-10T00:10:07.768Z,0
2018-02-10T00:11:10.198Z,0
2018-02-10T00:12:12.617Z,0
2018-02-10T00:13:15.043Z,0
2018-02-10T00:14:17.462Z,0
2018-02-10T00:15:19.874Z,0
2018-02-10T00:16:22.303Z,0
2018-02-10T00:17:24.728Z,0
2018-02-10T00:18:27.150Z,0
2018-02-10T00:19:29.565Z,0
2018-02-10T00:20:32.270Z,0
2018-02-10T00:21:34.685Z,0
2018-02-10T00:22:37.117Z,0
2018-02-10T00:23:39.537Z,0
2018-02-10T00:24:41.947Z,0
2018-02-10T00:25:44.373Z,0
2018-02-10T00:26:46.798Z,0
2018-02-10T00:27:49.511Z,0
2018-02-10T00:28:51.932Z,0
2018-02-10T00:29:54.345Z,0
2018-02-10T00:30:56.763Z,0
2018-02-10T00:31:59.200Z,0
2018-02-10T00:33:01.618Z,0
2018-02-10T00:34:04.038Z,0
2018-02-10T00:35:06.746Z,0
2018-02-10T00:36:09.166Z,0
2018-02-10T00:37:11.587Z,0
2018-02-10T00:38:14.006Z,0
2018-02-10T00:39:16.431Z,0
2018-02-10T00:40:18.857Z,0
2018-02-10T00:41:21.257Z,0
2018-02-10T00:42:23.690Z,0
2018-02-10T00:43:26.389Z,0
2018-02-10T00:44:28.816Z,0
2018-02-10T00:45:31.237Z,0
2018-02-10T00:46:33.649Z,0
2018-02-10T00:47:36.069Z,0
2018-02-10T00:48:38.502Z,0
2018-02-10T00:49:40.913Z,0
2018-02-10T00:50:43.335Z,0
2018-02-10T00:51:45.757Z,0
2018-02-10T00:52:48.172Z,0
2018-02-10T00:53:50.591Z,0
2018-02-10T00:54:53.020Z,0
2018-02-10T00:55:55.433Z,0
2018-02-10T00:56:57.863Z,0
2018-02-10T00:58:00.278Z,0
2018-02-10T00:59:02.997Z,0
2018-02-10T01:00:05.411Z,0
2018-02-10T01:01:07.832Z,0
2018-02-10T01:02:10.245Z,0
2018-02-10T01:03:12.956Z,0
2018-02-10T01:04:15.374Z,0
2018-02-10T01:05:17.782Z,0
2018-02-10T01:06:20.212Z,0
2018-02-10T01:07:22.633Z,0
2018-02-10T01:08:25.052Z,0
2018-02-10T01:09:27.475Z,0
2018-02-10T01:10:29.938Z,0
2018-02-10T01:11:32.312Z,0
2018-02-10T01:12:34.736Z,0
2018-02-10T01:13:37.152Z,0
2018-02-10T01:14:39.574Z,0
2018-02-10T01:15:41.989Z,0
2018-02-10T01:16:44.421Z,0
2018-02-10T01:17:47.122Z,0
2018-02-10T01:18:49.553Z,0
2018-02-10T01:19:51.961Z,0
2018-02-10T01:20:54.392Z,0
2018-02-10T01:21:56.809Z,0
2018-02-10T01:22:59.235Z,0
2018-02-10T01:24:01.657Z,0
2018-02-10T01:25:04.081Z,0
2018-02-10T01:26:06.510Z,0
2018-02-10T01:27:08.930Z,0
2018-02-10T01:28:11.345Z,0
2018-02-10T01:29:14.057Z,0
2018-02-10T01:30:16.474Z,0
2018-02-10T01:31:18.902Z,0
2018-02-10T01:32:21.314Z,0
2018-02-10T01:33:23.739Z,0
2018-02-10T01:34:26.465Z,0
2018-02-10T01:35:28.884Z,0
2018-02-10T01:36:31.310Z,0
2018-02-10T01:37:33.731Z,0
2018-02-10T01:38:36.445Z,0
2018-02-10T01:39:38.873Z,0
2018-02-10T01:40:41.558Z,0
2018-02-10T01:41:43.992Z,0
2018-02-10T01:42:46.405Z,0
2018-02-10T01:43:48.832Z,0
2018-02-10T01:44:51.254Z,0
2018-02-10T01:45:53.672Z,0
2018-02-10T01:46:56.093Z,0
2018-02-10T01:47:58.523Z,0
2018-02-10T01:49:01.235Z,0
2018-02-10T01:50:03.664Z,0
2018-02-10T01:51:06.080Z,0
2018-02-10T01:52:08.505Z,0
2018-02-10T01:53:11.220Z,0
2018-02-10T01:54:13.643Z,0
2018-02-10T01:55:16.342Z,0
2018-02-10T01:56:18.768Z,0
2018-02-10T01:57:21.463Z,0
2018-02-10T01:58:23.892Z,0
2018-02-10T01:59:26.301Z,0
2018-02-10T02:00:28.717Z,0
2018-02-10T02:01:31.134Z,0
2018-02-10T02:02:33.575Z,0
2018-02-10T02:03:35.984Z,0
2018-02-10T02:04:38.415Z,0
2018-02-10T02:05:40.834Z,0
2018-02-10T02:06:43.255Z,0
2018-02-10T02:07:45.681Z,0
2018-02-10T02:08:48.104Z,0
2018-02-10T02:09:50.518Z,0
2018-02-10T02:10:52.951Z,0
2018-02-10T02:11:55.354Z,0
2018-02-10T02:12:57.786Z,0
2018-02-10T02:14:00.206Z,0
2018-02-10T02:15:02.622Z,0
2018-02-10T02:16:05.323Z,0
2018-02-10T02:17:07.734Z,0
2018-02-10T02:18:10.161Z,0
2018-02-10T02:19:12.586Z,0
2018-02-10T02:20:15.012Z,0
2018-02-10T02:21:17.417Z,0
2018-02-10T02:22:19.841Z,0
2018-02-10T02:23:22.270Z,0
2018-02-10T02:24:24.686Z,0
2018-02-10T02:25:27.108Z,0
2018-02-10T02:26:29.814Z,0
2018-02-10T02:27:32.522Z,0
2018-02-10T02:28:34.966Z,0
2018-02-10T02:29:37.375Z,0
2018-02-10T02:30:40.097Z,0
2018-02-10T02:31:42.517Z,0
2018-02-10T02:32:45.250Z,0
2018-02-10T02:33:47.666Z,0
2018-02-10T02:34:50.083Z,0
2018-02-10T02:35:52.797Z,0
2018-02-10T02:36:55.206Z,0
2018-02-10T02:37:57.628Z,0
2018-02-10T02:39:00.339Z,0
2018-02-10T02:40:02.760Z,0
2018-02-10T02:41:05.185Z,0
2018-02-10T02:42:07.901Z,0
2018-02-10T02:43:10.313Z,0
2018-02-10T02:44:12.735Z,0
2018-02-10T02:45:15.165Z,0
2018-02-10T02:46:17.588Z,0
2018-02-10T02:47:20.010Z,0
2018-02-10T02:48:22.710Z,0
2018-02-10T02:49:25.135Z,0
2018-02-10T02:50:27.557Z,0
2018-02-10T02:51:30.556Z,0
2018-02-10T02:52:32.973Z,0
2018-02-10T02:53:35.394Z,0
2018-02-10T02:54:37.814Z,0
2018-02-10T02:55:40.223Z,0
2018-02-10T02:56:42.658Z,0
2018-02-10T02:57:45.362Z,0
2018-02-10T02:58:47.784Z,0
2018-02-10T02:59:50.213Z,0
2018-02-10T03:00:52.638Z,0
2018-02-10T03:01:55.067Z,0
2018-02-10T03:02:57.783Z,0
2018-02-10T03:04:00.196Z,0
2018-02-10T03:05:02.629Z,0
2018-02-10T03:06:05.043Z,0
2018-02-10T03:07:07.475Z,0
2018-02-10T03:08:09.898Z,0
2018-02-10T03:09:12.595Z,0
2018-02-10T03:10:15.022Z,0
2018-02-10T03:11:17.436Z,0
2018-02-10T03:12:19.858Z,0
2018-02-10T03:13:22.275Z,0
2018-02-10T03:14:24.693Z,0
2018-02-10T03:15:27.393Z,0
2018-02-10T03:16:29.821Z,0
2018-02-10T03:17:32.232Z,0
2018-02-10T03:18:34.666Z,0
2018-02-10T03:19:37.083Z,0
2018-02-10T03:20:39.497Z,0
2018-02-10T03:21:41.919Z,0
2018-02-10T03:22:44.336Z,0
2018-02-10T03:23:46.755Z,0
2018-02-10T03:24:49.465Z,0
2018-02-10T03:25:51.884Z,0
2018-02-10T03:26:54.307Z,0
2018-02-10T03:27:56.730Z,0
2018-02-10T03:28:59.155Z,0
2018-02-10T03:30:01.565Z,0
2018-02-10T03:31:03.993Z,0
2018-02-10T03:32:06.407Z,0
2018-02-10T03:33:08.821Z,0
2018-02-10T03:34:11.239Z,0
2018-02-10T03:35:13.661Z,0
2018-02-10T03:36:16.081Z,0
2018-02-10T03:37:18.501Z,0
2018-02-10T03:38:20.917Z,0
2018-02-10T03:39:23.625Z,0
2018-02-10T03:40:26.039Z,0
2018-02-10T03:41:28.470Z,0
2018-02-10T03:42:30.874Z,0
2018-02-10T03:43:33.289Z,0
2018-02-10T03:44:35.715Z,0
2018-02-10T03:45:38.126Z,0
2018-02-10T03:46:40.547Z,0
2018-02-10T03:47:42.964Z,0
2018-02-10T03:48:45.683Z,0
2018-02-10T03:49:48.092Z,0
2018-02-10T03:50:50.517Z,0
2018-02-10T03:51:52.927Z,0
2018-02-10T03:52:55.343Z,0
2018-02-10T03:53:57.776Z,0
2018-02-10T03:55:00.486Z,0
2018-02-10T03:56:02.913Z,0
2018-02-10T03:57:05.330Z,0
2018-02-10T03:58:08.384Z,0
2018-02-10T03:59:10.803Z,0
2018-02-10T04:00:13.230Z,0
2018-02-10T04:01:15.638Z,0
2018-02-10T04:02:18.054Z,0
2018-02-10T04:03:20.480Z,0
2018-02-10T04:04:22.898Z,0
2018-02-10T04:05:25.317Z,0
2018-02-10T04:06:27.744Z,0
2018-02-10T04:07:30.435Z,0
2018-02-10T04:08:33.152Z,0
2018-02-10T04:09:35.561Z,0
2018-02-10T04:10:38.264Z,0
2018-02-10T04:11:40.689Z,0
2018-02-10T04:12:43.397Z,0
2018-02-10T04:13:45.822Z,0
2018-02-10T04:14:48.247Z,0
2018-02-10T04:15:50.658Z,0
2018-02-10T04:16:53.087Z,0
2018-02-10T04:17:55.495Z,0
2018-02-10T04:18:57.910Z,0
2018-02-10T04:20:00.341Z,0
2018-02-10T04:21:02.761Z,0
2018-02-10T04:22:05.178Z,0
2018-02-10T04:23:07.604Z,0
2018-02-10T04:24:10.022Z,0
2018-02-10T04:25:12.456Z,0
2018-02-10T04:26:14.874Z,0
2018-02-10T04:27:17.275Z,0
2018-02-10T04:28:19.704Z,0
2018-02-10T04:29:22.121Z,0
2018-02-10T04:30:24.536Z,0
2018-02-10T04:31:26.944Z,0
2018-02-10T04:32:29.657Z,0
2018-02-10T04:33:32.078Z,0
2018-02-10T04:34:34.494Z,0
2018-02-10T04:35:36.918Z,0
2018-02-10T04:36:39.335Z,0
2018-02-10T04:37:42.040Z,0
2018-02-10T04:38:44.456Z,0
2018-02-10T04:39:46.864Z,0
2018-02-10T04:40:49.286Z,0
2018-02-10T04:41:51.710Z,0
2018-02-10T04:42:54.131Z,0
2018-02-10T04:43:56.830Z,0
2018-02-10T04:44:59.242Z,0
2018-02-10T04:46:01.663Z,0
2018-02-10T04:47:04.091Z,0
2018-02-10T04:48:06.509Z,0
2018-02-10T04:49:08.931Z,0
2018-02-10T04:50:11.355Z,0
2018-02-10T04:51:14.062Z,0
2018-02-10T04:52:16.477Z,0
2018-02-10T04:53:19.479Z,0
2018-02-10T04:54:21.900Z,0
2018-02-10T04:55:24.325Z,0
2018-02-10T04:56:26.738Z,0
2018-02-10T04:57:29.164Z,0
2018-02-10T04:58:31.566Z,0
2018-02-10T04:59:33.991Z,0
2018-02-10T05:00:36.415Z,0
2018-02-10T05:01:38.831Z,0
2018-02-10T05:02:41.534Z,0
2018-02-10T05:03:43.947Z,0
2018-02-10T05:04:46.368Z,0
2018-02-10T05:05:48.772Z,0
2018-02-10T05:06:51.191Z,0
2018-02-10T05:07:53.613Z,0
2018-02-10T05:08:56.034Z,0
2018-02-10T05:09:58.457Z,0
2018-02-10T05:11:01.188Z,0
2018-02-10T05:12:03.614Z,0
2018-02-10T05:13:06.043Z,0
2018-02-10T05:14:08.460Z,0
2018-02-10T05:15:10.876Z,0
2018-02-10T05:16:13.302Z,0
2018-02-10T05:17:15.726Z,0
2018-02-10T05:18:18.136Z,0
2018-02-10T05:19:20.553Z,0
2018-02-10T05:20:22.964Z,0
2018-02-10T05:21:25.385Z,0
2018-02-10T05:22:27.800Z,0
2018-02-10T05:23:30.214Z,0
2018-02-10T05:24:32.633Z,0
2018-02-10T05:25:35.056Z,0
2018-02-10T05:26:37.473Z,0
2018-02-10T05:27:39.894Z,0
2018-02-10T05:28:42.310Z,0
2018-02-10T05:29:44.730Z,0
2018-02-10T05:30:47.138Z,0
2018-02-10T05:31:49.571Z,0
2018-02-10T05:32:52.268Z,0
2018-02-10T05:33:54.680Z,0
2018-02-10T05:34:57.390Z,0
2018-02-10T05:35:59.804Z,0
2018-02-10T05:37:02.518Z,0
2018-02-10T05:38:05.233Z,0
2018-02-10T05:39:07.637Z,0
2018-02-10T05:40:10.349Z,0
2018-02-10T05:41:12.767Z,0
2018-02-10T05:42:15.186Z,0
2018-02-10T05:43:17.885Z,0
2018-02-10T05:44:20.305Z,0
2018-02-10T05:45:22.718Z,0
2018-02-10T05:46:25.434Z,0
2018-02-10T05:47:27.853Z,0
2018-02-10T05:48:30.278Z,0
2018-02-10T05:49:32.691Z,0
2018-02-10T05:50:35.113Z,0
2018-02-10T05:51:37.527Z,0
2018-02-10T05:52:39.945Z,0
2018-02-10T05:53:42.363Z,0
2018-02-10T05:54:44.774Z,0
2018-02-10T05:55:47.195Z,0
2018-02-10T05:56:49.620Z,0
2018-02-10T05:57:52.025Z,0
2018-02-10T05:58:54.722Z,0
2018-02-10T05:59:57.186Z,0
2018-02-10T06:00:59.564Z,0
2018-02-10T06:02:01.983Z,0
2018-02-10T06:03:04.394Z,0
2018-02-10T06:04:06.824Z,0
2018-02-10T06:05:09.810Z,0
2018-02-10T06:06:12.225Z,0
2018-02-10T06:07:14.943Z,0
2018-02-10T06:08:17.347Z,4
2018-02-10T06:09:20.056Z,0
2018-02-10T06:10:22.469Z,0
2018-02-10T06:11:24.884Z,4
2018-02-10T06:12:27.584Z,0
2018-02-10T06:13:30.007Z,4
2018-02-10T06:14:32.414Z,4
2018-02-10T06:15:34.828Z,8
2018-02-10T06:16:37.530Z,8
2018-02-10T06:17:39.949Z,8
2018-02-10T06:18:42.646Z,12
2018-02-10T06:19:45.055Z,16
2018-02-10T06:20:47.473Z,16
2018-02-10T06:21:49.896Z,20
2018-02-10T06:22:52.306Z,20
2018-02-10T06:23:54.729Z,24
2018-02-10T06:24:57.143Z,28
2018-02-10T06:25:59.566Z,36
2018-02-10T06:27:01.988Z,40
2018-02-10T06:28:04.408Z,44
2018-02-10T06:29:06.813Z,48
2018-02-10T06:30:09.239Z,56
2018-02-10T06:31:11.666Z,64
2018-02-10T06:32:14.083Z,76
2018-02-10T06:33:16.508Z,88
2018-02-10T06:34:19.205Z,100
2018-02-10T06:35:21.617Z,108
2018-02-10T06:36:24.038Z,124
2018-02-10T06:37:26.455Z,136
2018-02-10T06:38:28.865Z,152
2018-02-10T06:39:31.589Z,168
2018-02-10T06:40:34.005Z,184
2018-02-10T06:41:36.428Z,204
2018-02-10T06:42:38.845Z,224
2018-02-10T06:43:41.601Z,244
2018-02-10T06:44:44.313Z,264
2018-02-10T06:45:46.733Z,288
2018-02-10T06:46:49.146Z,312
2018-02-10T06:47:51.566Z,336
2018-02-10T06:48:54.269Z,364
2018-02-10T06:49:56.687Z,392
2018-02-10T06:50:59.393Z,420
2018-02-10T06:52:01.815Z,452
2018-02-10T06:53:04.233Z,480
2018-02-10T06:54:06.653Z,512
2018-02-10T06:55:09.076Z,544
2018-02-10T06:56:11.494Z,580
2018-02-10T06:57:14.196Z,612
2018-02-10T06:58:16.621Z,652
2018-02-10T06:59:19.039Z,692
2018-02-10T07:00:21.743Z,732
2018-02-10T07:01:24.166Z,772
2018-02-10T07:02:26.877Z,812
2018-02-10T07:03:29.292Z,856
2018-02-10T07:04:31.708Z,904
2018-02-10T07:05:34.125Z,956
2018-02-10T07:06:36.551Z,1008
2018-02-10T07:07:38.968Z,1060
2018-02-10T07:08:41.384Z,1112
2018-02-10T07:09:43.795Z,1160
2018-02-10T07:10:46.222Z,1216
2018-02-10T07:11:48.942Z,1264
2018-02-10T07:12:51.373Z,1312
2018-02-10T07:13:54.054Z,1372
2018-02-10T07:14:56.475Z,1428
2018-02-10T07:15:58.893Z,1488
2018-02-10T07:17:01.315Z,1548
2018-02-10T07:18:03.731Z,1604
2018-02-10T07:19:06.444Z,1664
2018-02-10T07:20:08.856Z,1736
2018-02-10T07:21:11.284Z,1812
2018-02-10T07:22:13.985Z,1888
2018-02-10T07:23:16.406Z,1944
2018-02-10T07:24:18.823Z,2008
2018-02-10T07:25:21.241Z,2076
2018-02-10T07:26:23.653Z,2144
2018-02-10T07:27:26.085Z,2212
2018-02-10T07:28:28.770Z,2288
2018-02-10T07:29:31.181Z,2352
2018-02-10T07:30:33.614Z,2428
2018-02-10T07:31:36.027Z,2504
2018-02-10T07:32:38.444Z,2584
2018-02-10T07:33:40.862Z,2684
2018-02-10T07:34:43.279Z,2788
2018-02-10T07:35:45.691Z,2876
2018-02-10T07:36:48.397Z,2960
2018-02-10T07:37:50.803Z,3060
2018-02-10T07:38:53.222Z,3160
2018-02-10T07:39:55.652Z,3284
2018-02-10T07:40:58.065Z,3400
2018-02-10T07:42:00.485Z,3512
2018-02-10T07:43:02.909Z,3592
2018-02-10T07:44:05.605Z,3688
2018-02-10T07:45:08.315Z,3780
2018-02-10T07:46:10.740Z,3876
2018-02-10T07:47:13.156Z,3968
2018-02-10T07:48:15.567Z,4056
2018-02-10T07:49:17.993Z,4144
2018-02-10T07:50:20.407Z,4268
2018-02-10T07:51:22.840Z,4360
2018-02-10T07:52:25.244Z,4420
2018-02-10T07:53:27.662Z,4524
2018-02-10T07:54:30.087Z,4652
2018-02-10T07:55:32.508Z,4732
2018-02-10T07:56:34.932Z,4824
2018-02-10T07:57:37.347Z,4904
2018-02-10T07:58:39.769Z,5000
2018-02-10T07:59:42.470Z,5104
2018-02-10T08:00:45.479Z,5220
2018-02-10T08:01:47.908Z,5372
2018-02-10T08:02:50.597Z,5596
2018-02-10T08:03:53.019Z,5664
2018-02-10T08:04:55.436Z,5768
2018-02-10T08:05:57.856Z,5916
2018-02-10T08:07:00.285Z,6108
2018-02-10T08:08:02.707Z,6332
2018-02-10T08:09:05.132Z,6576
2018-02-10T08:10:07.561Z,6772
2018-02-10T08:11:09.962Z,6892
2018-02-10T08:12:12.381Z,7044
2018-02-10T08:13:14.805Z,7288
2018-02-10T08:14:17.228Z,7540
2018-02-10T08:15:19.648Z,7688
2018-02-10T08:16:22.355Z,7808
2018-02-10T08:17:24.761Z,8000
2018-02-10T08:18:27.201Z,8328
2018-02-10T08:19:29.618Z,8576
2018-02-10T08:20:32.322Z,8740
2018-02-10T08:21:34.737Z,8944
2018-02-10T08:22:37.151Z,9212
2018-02-10T08:23:39.579Z,9440
2018-02-10T08:24:42.006Z,9596
2018-02-10T08:25:44.750Z,9820
2018-02-10T08:26:47.129Z,10148
2018-02-10T08:27:49.566Z,10608
2018-02-10T08:28:51.978Z,10980
2018-02-10T08:29:54.676Z,10928
2018-02-10T08:30:57.102Z,11032
2018-02-10T08:31:59.522Z,11336
2018-02-10T08:33:01.941Z,11760
2018-02-10T08:34:04.362Z,11520
2018-02-10T08:35:07.082Z,11396
2018-02-10T08:36:09.497Z,11480
2018-02-10T08:37:11.981Z,11920
2018-02-10T08:38:14.347Z,12252
2018-02-10T08:39:16.769Z,12428
2018-02-10T08:40:19.191Z,12592
2018-02-10T08:41:21.611Z,12728
2018-02-10T08:42:24.029Z,13008
2018-02-10T08:43:26.456Z,13544
2018-02-10T08:44:29.158Z,13808
2018-02-10T08:45:31.592Z,14136
2018-02-10T08:46:34.005Z,14432
2018-02-10T08:47:36.719Z,14776
2018-02-10T08:48:39.138Z,14960
2018-02-10T08:49:41.571Z,15084
2018-02-10T08:50:43.998Z,15216
2018-02-10T08:51:46.417Z,15392
2018-02-10T08:52:49.123Z,15324
2018-02-10T08:53:51.542Z,15364
2018-02-10T08:54:53.968Z,15464
2018-02-10T08:55:56.400Z,15720
2018-02-10T08:56:58.819Z,16000
2018-02-10T08:58:01.242Z,16416
2018-02-10T08:59:03.666Z,16544
2018-02-10T09:00:06.095Z,16864
2018-02-10T09:01:08.509Z,16768
2018-02-10T09:02:10.931Z,17344
2018-02-10T09:03:13.359Z,18624
2018-02-10T09:04:15.783Z,19200
2018-02-10T09:05:18.494Z,18496
2018-02-10T09:06:20.924Z,18688
2018-02-10T09:07:23.344Z,19616
2018-02-10T09:08:25.779Z,20128
2018-02-10T09:09:28.213Z,20256
2018-02-10T09:10:30.911Z,20672
2018-02-10T09:11:33.354Z,20512
2018-02-10T09:12:35.769Z,21248
2018-02-10T09:13:38.192Z,21536
2018-02-10T09:14:40.622Z,20384
2018-02-10T09:15:43.033Z,22880
2018-02-10T09:16:45.458Z,24000
2018-02-10T09:17:47.887Z,23360
2018-02-10T09:18:50.310Z,23744
2018-02-10T09:19:52.743Z,24160
2018-02-10T09:20:55.172Z,24512
2018-02-10T09:21:57.881Z,25824
2018-02-10T09:23:00.320Z,26080
2018-02-10T09:24:02.748Z,26368
2018-02-10T09:25:05.165Z,27328
2018-02-10T09:26:07.891Z,28128
2018-02-10T09:27:10.596Z,29344
2018-02-10T09:28:13.024Z,29440
2018-02-10T09:29:15.449Z,30016
2018-02-10T09:30:17.883Z,31136
2018-02-10T09:31:20.613Z,33152
2018-02-10T09:32:23.046Z,33888
2018-02-10T09:33:25.465Z,35168
2018-02-10T09:34:28.183Z,36832
2018-02-10T09:35:30.599Z,38240
2018-02-10T09:36:33.031Z,38848
2018-02-10T09:37:35.507Z,40896
2018-02-10T09:38:37.896Z,36480
2018-02-10T09:39:40.318Z,39392
2018-02-10T09:40:42.753Z,39552
2018-02-10T09:41:45.454Z,37632
2018-02-10T09:42:47.890Z,33984
2018-02-10T09:43:50.321Z,34144
2018-02-10T09:44:52.754Z,34880
2018-02-10T09:45:55.177Z,34944
2018-02-10T09:46:57.610Z,34784
2018-02-10T09:48:00.316Z,34528
2018-02-10T09:49:03.051Z,35296
2018-02-10T09:50:05.475Z,34656
2018-02-10T09:51:08.203Z,34816
2018-02-10T09:52:10.923Z,35488
2018-02-10T09:53:13.340Z,34720
2018-02-10T09:54:15.769Z,37280
2018-02-10T09:55:18.201Z,36512
2018-02-10T09:56:20.621Z,39840
2018-02-10T09:57:23.045Z,40032
2018-02-10T09:58:25.484Z,39040
2018-02-10T09:59:27.906Z,37696
2018-02-10T10:00:30.615Z,36736
2018-02-10T10:01:33.047Z,37536
2018-02-10T10:02:35.468Z,37376
2018-02-10T10:03:37.895Z,36224
2018-02-10T10:04:40.322Z,38528
2018-02-10T10:05:42.752Z,41632
2018-02-10T10:06:45.186Z,40960
2018-02-10T10:07:47.620Z,39488
2018-02-10T10:08:50.341Z,40480
2018-02-10T10:09:53.045Z,43552
2018-02-10T10:10:55.480Z,40640
2018-02-10T10:11:58.200Z,41024
2018-02-10T10:13:00.646Z,41312
2018-02-10T10:14:03.120Z,41504
2018-02-10T10:15:05.500Z,42112
2018-02-10T10:16:08.210Z,41248
2018-02-10T10:17:10.638Z,42976
2018-02-10T10:18:13.068Z,44096
2018-02-10T10:19:15.492Z,44960
2018-02-10T10:20:17.915Z,44768
2018-02-10T10:21:20.351Z,44704
2018-02-10T10:22:23.083Z,46176
2018-02-10T10:23:25.521Z,48544
2018-02-10T10:24:27.948Z,46496
2018-02-10T10:25:30.384Z,44640
2018-02-10T10:26:32.811Z,44320
2018-02-10T10:27:35.246Z,42400
2018-02-10T10:28:37.674Z,36704
2018-02-10T10:29:40.094Z,34784
2018-02-10T10:30:42.532Z,37920
2018-02-10T10:31:44.951Z,42688
2018-02-10T10:32:47.377Z,44480
2018-02-10T10:33:49.829Z,45536
2018-02-10T10:34:52.242Z,45920
2018-02-10T10:35:54.675Z,48320
2018-02-10T10:36:57.411Z,49472
2018-02-10T10:37:59.840Z,48448
2018-02-10T10:39:02.279Z,50048
2018-02-10T10:40:04.714Z,52064
2018-02-10T10:41:07.137Z,50880
2018-02-10T10:42:09.568Z,52288
2018-02-10T10:43:11.992Z,54912
2018-02-10T10:44:14.425Z,54720
2018-02-10T10:45:16.857Z,52384
2018-02-10T10:46:19.276Z,48960
2018-02-10T10:47:21.711Z,50240
2018-02-10T10:48:24.149Z,50848
2018-02-10T10:49:26.859Z,52352
2018-02-10T10:50:29.296Z,53152
2018-02-10T10:51:31.720Z,54144
2018-02-10T10:52:34.158Z,54944
2018-02-10T10:53:36.590Z,50464
2018-02-10T10:54:39.031Z,48096
2018-02-10T10:55:41.731Z,45632
2018-02-10T10:56:44.162Z,51712
2018-02-10T10:57:46.615Z,53600
2018-02-10T10:58:49.048Z,54272
2018-02-10T10:59:51.479Z,51040
2018-02-10T11:00:53.918Z,50784
2018-02-10T11:01:56.342Z,49600
2018-02-10T11:02:58.783Z,45216
2018-02-10T11:04:01.501Z,46496
2018-02-10T11:05:03.921Z,51680
2018-02-10T11:06:06.355Z,56000
2018-02-10T11:07:09.086Z,59264
2018-02-10T11:08:11.515Z,60448
2018-02-10T11:09:13.948Z,55712
2018-02-10T11:10:16.387Z,56128
2018-02-10T11:11:18.806Z,56256
2018-02-10T11:12:21.249Z,54400
2018-02-10T11:13:23.683Z,55936
2018-02-10T11:14:26.106Z,53504
2018-02-10T11:15:28.547Z,55744
2018-02-10T11:16:30.992Z,53024
2018-02-10T11:17:33.431Z,52256
2018-02-10T11:18:35.867Z,50528
2018-02-10T11:19:38.290Z,51456
2018-02-10T11:20:40.717Z,51040
2018-02-10T11:21:43.168Z,51168
2018-02-10T11:22:45.600Z,51264
2018-02-10T11:23:48.023Z,54048
2018-02-10T11:24:50.459Z,54528
2018-02-10T11:25:52.890Z,53024
2018-02-10T11:26:55.329Z,50784
2018-02-10T11:27:57.762Z,51584
2018-02-10T11:29:00.201Z,48288
2018-02-10T11:30:02.637Z,50240
2018-02-10T11:31:05.071Z,51968
2018-02-10T11:32:07.498Z,48992
2018-02-10T11:33:09.935Z,46976
2018-02-10T11:34:12.366Z,44288
2018-02-10T11:35:14.803Z,42304
2018-02-10T11:36:17.228Z,48608
2018-02-10T11:37:19.970Z,52384
2018-02-10T11:38:22.401Z,50752
2018-02-10T11:39:24.843Z,53056
2018-02-10T11:40:27.280Z,53952
2018-02-10T11:41:29.724Z,58368
2018-02-10T11:42:32.156Z,60672
2018-02-10T11:43:34.593Z,58784
2018-02-10T11:44:37.341Z,57888
2018-02-10T11:45:39.784Z,58656
2018-02-10T11:46:42.510Z,56096
2018-02-10T11:47:44.959Z,56352
2018-02-10T11:48:47.677Z,62464
2018-02-10T11:49:50.108Z,63136
2018-02-10T11:50:52.544Z,63616
2018-02-10T11:51:54.982Z,64160
2018-02-10T11:52:57.697Z,62912
2018-02-10T11:54:00.145Z,65472
2018-02-10T11:55:02.568Z,65408
2018-02-10T11:56:05.005Z,62784
2018-02-10T11:57:07.448Z,60544
2018-02-10T11:58:09.880Z,61120
2018-02-10T11:59:12.664Z,61152
2018-02-10T12:00:15.090Z,58624
2018-02-10T12:01:17.527Z,58880
2018-02-10T12:02:19.966Z,57760
2018-02-10T12:03:22.400Z,54016
2018-02-10T12:04:25.136Z,53472
2018-02-10T12:05:27.594Z,60800
2018-02-10T12:06:30.006Z,59104
2018-02-10T12:07:32.731Z,57696
2018-02-10T12:08:35.161Z,58112
2018-02-10T12:09:37.604Z,53504
2018-02-10T12:10:40.046Z,50528
2018-02-10T12:11:42.479Z,57056
2018-02-10T12:12:44.914Z,56032
2018-02-10T12:13:47.345Z,45056
2018-02-10T12:14:49.780Z,56064
2018-02-10T12:15:52.223Z,51744
2018-02-10T12:16:54.655Z,47456
2018-02-10T12:17:57.082Z,48928
2018-02-10T12:18:59.517Z,56640
2018-02-10T12:20:02.267Z,59968
2018-02-10T12:21:04.982Z,51232
2018-02-10T12:22:07.424Z,51040
2018-02-10T12:23:10.145Z,51168
2018-02-10T12:24:12.583Z,54816
2018-02-10T12:25:15.020Z,53376
2018-02-10T12:26:17.776Z,49472
2018-02-10T12:27:20.211Z,44896
2018-02-10T12:28:22.654Z,54432
2018-02-10T12:29:25.084Z,51968
2018-02-10T12:30:27.525Z,48480
2018-02-10T12:31:29.962Z,36352
2018-02-10T12:32:32.397Z,43264
2018-02-10T12:33:34.836Z,47136
2018-02-10T12:34:37.552Z,43264
2018-02-10T12:35:39.992Z,48736
2018-02-10T12:36:42.434Z,52160
2018-02-10T12:37:44.857Z,50144
2018-02-10T12:38:47.293Z,50816
2018-02-10T12:39:49.738Z,53248
2018-02-10T12:40:52.173Z,55136
2018-02-10T12:41:54.610Z,51232
2018-02-10T12:42:57.052Z,52672
2018-02-10T12:43:59.481Z,53184
2018-02-10T12:45:01.934Z,53888
2018-02-10T12:46:04.364Z,56576
2018-02-10T12:47:06.805Z,53888
2018-02-10T12:48:09.239Z,54176
2018-02-10T12:49:11.969Z,54720
2018-02-10T12:50:14.413Z,50080
2018-02-10T12:51:16.852Z,48416
2018-02-10T12:52:19.279Z,51680
2018-02-10T12:53:21.715Z,51040
2018-02-10T12:54:24.165Z,51328
2018-02-10T12:55:26.604Z,50976
2018-02-10T12:56:29.029Z,50688
2018-02-10T12:57:31.468Z,54112
2018-02-10T12:58:33.908Z,61696
2018-02-10T12:59:36.397Z,65632
2018-02-10T13:00:39.116Z,65056
2018-02-10T13:01:41.563Z,59904
2018-02-10T13:02:43.984Z,51040
2018-02-10T13:03:46.731Z,49024
2018-02-10T13:04:49.164Z,50048
2018-02-10T13:05:51.601Z,54048
2018-02-10T13:06:54.034Z,49504
2018-02-10T13:07:56.518Z,52800
2018-02-10T13:08:58.900Z,59712
2018-02-10T13:10:01.342Z,58272
2018-02-10T13:11:04.063Z,52224
2018-02-10T13:12:06.506Z,51968
2018-02-10T13:13:08.935Z,48288
2018-02-10T13:14:11.372Z,45696
2018-02-10T13:15:13.806Z,45920
2018-02-10T13:16:16.525Z,45696
2018-02-10T13:17:18.949Z,48288
2018-02-10T13:18:21.391Z,50944
2018-02-10T13:19:23.829Z,52800
2018-02-10T13:20:26.265Z,49792
2018-02-10T13:21:28.696Z,54976
2018-02-10T13:22:31.137Z,54560
2018-02-10T13:23:33.569Z,52768
2018-02-10T13:24:36.009Z,43328
2018-02-10T13:25:38.443Z,36032
2018-02-10T13:26:40.887Z,38816
2018-02-10T13:27:43.598Z,33536
2018-02-10T13:28:46.038Z,29024
2018-02-10T13:29:48.767Z,30368
2018-02-10T13:30:51.203Z,32096
2018-02-10T13:31:53.638Z,29024
2018-02-10T13:32:56.076Z,28160
2018-02-10T13:33:58.790Z,25792
2018-02-10T13:35:01.244Z,30560
2018-02-10T13:36:03.664Z,33440
2018-02-10T13:37:06.080Z,35424
2018-02-10T13:38:08.523Z,31136
2018-02-10T13:39:11.240Z,35520
2018-02-10T13:40:13.675Z,33824
2018-02-10T13:41:16.113Z,28032
2018-02-10T13:42:18.534Z,27296
2018-02-10T13:43:20.965Z,27808
2018-02-10T13:44:23.405Z,28480
2018-02-10T13:45:25.841Z,26816
2018-02-10T13:46:28.277Z,32224
2018-02-10T13:47:30.993Z,35104
2018-02-10T13:48:33.430Z,35808
2018-02-10T13:49:35.875Z,30304
2018-02-10T13:50:38.316Z,23904
2018-02-10T13:51:40.743Z,21248
2018-02-10T13:52:43.183Z,17552
2018-02-10T13:53:45.616Z,18592
2018-02-10T13:54:48.049Z,16036
2018-02-10T13:55:50.481Z,16692
2018-02-10T13:56:52.920Z,25408
2018-02-10T13:57:55.373Z,27808
2018-02-10T13:58:57.788Z,25248
2018-02-10T14:00:00.217Z,24288
2018-02-10T14:01:02.666Z,21024
2018-02-10T14:02:05.104Z,20768
2018-02-10T14:03:07.535Z,22592
2018-02-10T14:04:09.967Z,22592
2018-02-10T14:05:12.402Z,21088
2018-02-10T14:06:14.830Z,21344
2018-02-10T14:07:17.275Z,23584
2018-02-10T14:08:19.977Z,24224
2018-02-10T14:09:22.426Z,20768
2018-02-10T14:10:24.845Z,18912
2018-02-10T14:11:27.288Z,17888
2018-02-10T14:12:29.722Z,15204
2018-02-10T14:13:32.165Z,16392
2018-02-10T14:14:34.881Z,14768
2018-02-10T14:15:37.322Z,13960
2018-02-10T14:16:39.746Z,14188
2018-02-10T14:17:42.188Z,14532
2018-02-10T14:18:44.617Z,14356
2018-02-10T14:19:47.038Z,13548